createdAt,value
2022-09-07T00:00:13.999Z,12.43
2022-09-07T00:02:44.612Z,14.52
2022-09-07T00:05:15.171Z,13.23
2022-09-07T00:07:45.736Z,12.90
2022-09-07T00:10:16.422Z,13.23
2022-09-07T00:12:47.260Z,7.90
2022-09-07T00:15:17.744Z,8.80
2022-09-07T00:17:48.216Z,13.98
2022-09-07T00:20:18.966Z,12.82
2022-09-07T00:22:49.585Z,14.85
2022-09-07T00:25:20.095Z,12.18
2022-09-07T00:27:51.290Z,15.85
2022-09-07T00:30:22.159Z,12.02
2022-09-07T00:32:52.980Z,11.10
2022-09-07T00:35:23.511Z,18.60
2022-09-07T00:37:54.007Z,18.20
2022-09-07T00:40:24.461Z,8.60
2022-09-07T00:45:25.428Z,14.45
2022-09-07T00:48:10.938Z,11.95
2022-09-07T00:50:53.278Z,10.60
2022-09-07T00:53:51.055Z,11.18
2022-09-07T00:56:23.813Z,10.27
2022-09-07T00:58:55.195Z,10.82
2022-09-07T01:01:26.584Z,8.32
2022-09-07T01:04:00.964Z,13.57
2022-09-07T01:06:37.731Z,11.43
2022-09-07T01:09:12.561Z,15.65
2022-09-07T01:11:47.008Z,16.73
2022-09-07T01:14:19.062Z,10.70
2022-09-07T01:17:01.684Z,12.93
2022-09-07T01:20:05.414Z,7.90
2022-09-07T01:23:03.891Z,10.30
2022-09-07T01:25:57.000Z,8.18
2022-09-07T01:28:33.983Z,10.32
2022-09-07T01:31:14.169Z,9.93
2022-09-07T01:33:47.715Z,9.38
2022-09-07T01:36:36.487Z,7.32
2022-09-07T01:39:09.508Z,14.55
2022-09-07T01:42:00.023Z,17.52
2022-09-07T01:44:37.173Z,18.73
2022-09-07T01:47:25.187Z,10.82
2022-09-07T01:50:12.489Z,13.95
2022-09-07T01:52:50.116Z,12.77
2022-09-07T01:55:35.224Z,20.08
2022-09-07T01:58:42.114Z,17.35
2022-09-07T02:01:25.618Z,18.20
2022-09-07T02:04:14.269Z,17.88
2022-09-07T02:06:44.586Z,15.07
2022-09-07T02:09:43.555Z,14.52
2022-09-07T02:12:29.603Z,11.50
2022-09-07T02:15:08.033Z,16.83
2022-09-07T02:17:45.886Z,15.90
2022-09-07T02:20:22.474Z,12.90
2022-09-07T02:25:35.395Z,13.07
2022-09-07T02:28:27.949Z,14.10
2022-09-07T02:30:58.993Z,13.18
2022-09-07T02:33:30.843Z,24.23
2022-09-07T02:36:03.222Z,15.93
2022-09-07T02:38:34.886Z,17.48
2022-09-07T02:41:06.310Z,12.38
2022-09-07T02:43:37.117Z,11.98
2022-09-07T02:46:21.684Z,15.00
2022-09-07T02:48:57.558Z,17.80
2022-09-07T02:51:52.346Z,10.50
2022-09-07T02:54:35.995Z,16.85
2022-09-07T02:57:42.689Z,15.27
2022-09-07T03:00:17.941Z,13.48
2022-09-07T03:03:07.693Z,13.43
2022-09-07T03:05:49.286Z,12.38
2022-09-07T03:08:50.454Z,13.07
2022-09-07T03:11:21.383Z,10.68
2022-09-07T03:13:51.978Z,9.98
2022-09-07T03:16:22.479Z,9.82
2022-09-07T03:18:53.104Z,16.65
2022-09-07T03:21:23.615Z,9.52
2022-09-07T03:26:29.042Z,8.45
2022-09-07T03:28:59.512Z,11.45
2022-09-07T03:31:29.813Z,11.43
2022-09-07T03:34:00.310Z,8.73
2022-09-07T03:36:32.346Z,7.85
2022-09-07T03:39:04.169Z,8.82
2022-09-07T03:41:35.071Z,8.40
2022-09-07T03:44:09.856Z,6.95
2022-09-07T03:46:40.404Z,9.07
2022-09-07T03:49:10.909Z,7.60
2022-09-07T03:51:41.333Z,5.65
2022-09-07T03:54:12.035Z,10.65
2022-09-07T03:56:42.642Z,7.75
2022-09-07T03:59:13.111Z,12.10
2022-09-07T04:01:43.661Z,14.55
2022-09-07T04:04:14.931Z,9.38
2022-09-07T04:06:45.395Z,6.07
2022-09-07T04:11:46.235Z,9.68
2022-09-07T04:16:46.813Z,11.35
2022-09-07T04:19:17.554Z,13.85
2022-09-07T04:24:20.051Z,9.00
2022-09-07T04:26:50.513Z,9.18
2022-09-07T04:31:50.875Z,7.40
2022-09-07T04:36:50.932Z,6.35
2022-09-07T04:41:51.770Z,6.85
2022-09-07T04:44:22.198Z,6.28
2022-09-07T04:49:22.371Z,6.88
2022-09-07T04:54:22.771Z,6.97
2022-09-07T04:56:53.186Z,12.55
2022-09-07T04:59:24.079Z,9.95
2022-09-07T05:01:54.615Z,8.90
2022-09-07T05:04:25.091Z,11.55
2022-09-07T05:06:56.547Z,12.10
2022-09-07T05:09:26.998Z,9.65
2022-09-07T05:11:57.644Z,15.82
2022-09-07T05:14:28.204Z,14.02
2022-09-07T05:16:58.696Z,10.82
2022-09-07T05:22:00.061Z,14.00
2022-09-07T05:27:03.109Z,12.13
2022-09-07T05:32:24.039Z,8.50
2022-09-07T05:34:55.074Z,7.53
2022-09-07T05:37:25.394Z,12.45
2022-09-07T05:39:57.917Z,5.85
2022-09-07T05:42:28.398Z,9.48
2022-09-07T05:47:29.193Z,8.57
2022-09-07T05:49:59.558Z,5.13
2022-09-07T05:52:30.067Z,10.23
2022-09-07T05:55:19.396Z,9.35
2022-09-07T05:57:51.117Z,13.07
2022-09-07T06:02:53.273Z,7.47
2022-09-07T06:05:23.757Z,17.52
2022-09-07T06:13:15.113Z,8.40
2022-09-07T06:18:15.718Z,7.70
2022-09-07T06:20:46.154Z,13.85
2022-09-07T06:25:52.618Z,6.03
2022-09-07T06:30:52.748Z,6.60
2022-09-07T06:36:00.267Z,16.98
2022-09-07T06:38:39.004Z,18.23
2022-09-07T06:44:04.611Z,14.35
2022-09-07T06:49:26.557Z,37.42
2022-09-07T06:51:56.997Z,43.67
2022-09-07T06:57:17.459Z,58.72
2022-09-07T06:59:47.923Z,51.00
2022-09-07T07:04:48.448Z,42.42
2022-09-07T07:09:51.366Z,39.60
2022-09-07T07:14:49.756Z,39.30
2022-09-07T07:19:49.632Z,28.55
2022-09-07T07:25:11.415Z,26.65
2022-09-07T07:27:41.856Z,34.97
2022-09-07T07:30:12.710Z,41.03
2022-09-07T07:32:44.334Z,49.13
2022-09-07T07:35:15.917Z,43.92
2022-09-07T07:37:46.699Z,37.47
2022-09-07T07:40:19.176Z,51.58
2022-09-07T07:42:53.945Z,38.70
2022-09-07T07:48:14.876Z,41.58
2022-09-07T07:50:45.310Z,36.47
2022-09-07T07:56:12.972Z,22.60
2022-09-07T07:58:48.265Z,24.08
2022-09-07T08:01:20.593Z,27.10
2022-09-07T08:03:51.161Z,38.25
2022-09-07T08:06:23.324Z,25.98
2022-09-07T08:08:53.814Z,24.92
2022-09-07T08:13:56.254Z,19.27
2022-09-07T08:16:26.880Z,20.10
2022-09-07T08:18:57.491Z,26.33
2022-09-07T08:21:28.074Z,25.05
2022-09-07T08:23:58.609Z,22.98
2022-09-07T08:26:29.689Z,34.35
2022-09-07T08:29:00.248Z,25.52
2022-09-07T08:31:30.979Z,21.17
2022-09-07T08:34:03.202Z,21.20
2022-09-07T08:36:33.917Z,20.48
2022-09-07T08:39:04.869Z,19.73
2022-09-07T08:41:47.832Z,24.75
2022-09-07T08:44:27.290Z,24.15
2022-09-07T08:47:06.268Z,25.35
2022-09-07T08:50:02.731Z,23.67
2022-09-07T08:53:03.137Z,22.13
2022-09-07T08:56:18.006Z,24.92
2022-09-07T08:58:54.773Z,24.42
2022-09-07T09:01:34.052Z,24.98
2022-09-07T09:04:19.342Z,20.55
2022-09-07T09:07:07.181Z,26.50
2022-09-07T09:09:55.884Z,18.85
2022-09-07T09:12:56.447Z,19.30
2022-09-07T09:15:53.818Z,17.83
2022-09-07T09:19:10.396Z,20.63
2022-09-07T09:21:42.872Z,16.45
2022-09-07T09:24:21.319Z,21.95
2022-09-07T09:26:56.358Z,19.42
2022-09-07T09:29:26.900Z,18.33
2022-09-07T09:31:57.811Z,19.83
2022-09-07T09:34:31.250Z,17.35
2022-09-07T09:37:03.953Z,17.50
2022-09-07T09:39:45.768Z,19.25
2022-09-07T09:42:17.951Z,21.45
2022-09-07T09:44:49.253Z,16.52
2022-09-07T09:47:35.999Z,26.80
2022-09-07T09:53:28.436Z,21.17
2022-09-07T09:55:58.925Z,18.48
2022-09-07T10:01:28.097Z,16.35
2022-09-07T10:04:01.072Z,18.23
2022-09-07T10:06:31.877Z,16.65
2022-09-07T10:09:03.920Z,15.68
2022-09-07T10:14:49.061Z,21.98
2022-09-07T10:17:31.545Z,19.48
2022-09-07T10:20:18.434Z,22.63
2022-09-07T10:23:21.173Z,22.48
2022-09-07T10:25:52.553Z,23.27
2022-09-07T10:29:06.161Z,21.60
2022-09-07T10:31:38.094Z,19.48
2022-09-07T10:34:27.003Z,17.88
2022-09-07T10:37:12.446Z,15.55
2022-09-07T10:40:20.721Z,20.05
2022-09-07T10:43:21.853Z,17.83
2022-09-07T10:46:14.233Z,15.55
2022-09-07T10:49:03.105Z,21.23
2022-09-07T10:51:58.848Z,16.65
2022-09-07T10:54:41.733Z,15.85
2022-09-07T10:57:44.550Z,12.60
2022-09-07T11:00:24.046Z,16.02
2022-09-07T11:03:33.154Z,11.98
2022-09-07T11:06:39.027Z,10.55
2022-09-07T11:09:34.112Z,16.08
2022-09-07T11:12:30.822Z,19.05
2022-09-07T11:15:16.592Z,20.77
2022-09-07T11:18:15.791Z,10.27
2022-09-07T11:20:56.833Z,7.70
2022-09-07T11:24:01.521Z,10.07
2022-09-07T11:26:41.484Z,6.70
2022-09-07T11:29:32.429Z,5.38
2022-09-07T11:32:16.309Z,5.53
2022-09-07T11:34:58.835Z,9.07
2022-09-07T11:37:41.617Z,3.60
2022-09-07T11:43:01.037Z,3.47
2022-09-07T11:45:42.972Z,5.75
2022-09-07T11:48:21.360Z,6.05
2022-09-07T11:50:59.327Z,3.67
2022-09-07T11:53:34.304Z,3.63
2022-09-07T11:56:15.871Z,5.78
2022-09-07T11:59:16.718Z,2.65
2022-09-07T12:01:53.345Z,6.78
2022-09-07T12:04:58.820Z,3.55
2022-09-07T12:07:52.572Z,2.83
2022-09-07T12:10:41.168Z,8.35
2022-09-07T12:13:20.979Z,3.70
2022-09-07T12:16:13.821Z,4.63
2022-09-07T12:19:16.730Z,4.45
2022-09-07T12:21:53.215Z,10.57
2022-09-07T12:27:23.965Z,4.90
2022-09-07T12:30:02.784Z,3.47
2022-09-07T12:32:58.053Z,4.13
2022-09-07T12:35:29.496Z,4.25
2022-09-07T12:38:04.614Z,7.57
2022-09-07T12:40:38.674Z,3.63
2022-09-07T12:43:15.156Z,7.30
2022-09-07T12:48:21.407Z,2.80
2022-09-07T12:51:02.792Z,2.80
2022-09-07T12:53:50.039Z,7.43
2022-09-07T12:57:29.051Z,7.28
2022-09-07T12:59:42.125Z,5.03
2022-09-07T13:05:07.506Z,8.85
2022-09-07T13:08:07.227Z,5.03
2022-09-07T13:16:31.414Z,3.63
2022-09-07T13:19:04.401Z,9.10
2022-09-07T13:21:50.073Z,4.25
2022-09-07T13:27:48.061Z,2.13
2022-09-07T13:35:39.098Z,11.48
2022-09-07T13:38:16.870Z,17.25
2022-09-07T13:40:50.100Z,7.57
2022-09-07T13:43:27.022Z,3.33
2022-09-07T13:45:57.770Z,7.68
2022-09-07T13:48:52.202Z,2.65
2022-09-07T13:51:42.133Z,12.13
2022-09-07T13:54:40.369Z,9.00
2022-09-07T13:57:29.343Z,2.95
2022-09-07T14:00:00.197Z,3.90
2022-09-07T14:02:41.415Z,34.25
2022-09-07T14:05:21.658Z,3.97
2022-09-07T14:07:52.173Z,2.85
2022-09-07T14:10:26.435Z,4.10
2022-09-07T14:13:09.301Z,5.07
2022-09-07T14:15:43.348Z,3.05
2022-09-07T14:18:16.167Z,2.83
2022-09-07T14:20:49.946Z,3.20
2022-09-07T14:23:36.310Z,3.25
2022-09-07T14:26:18.304Z,9.23
2022-09-07T14:28:52.768Z,4.65
2022-09-07T14:31:26.036Z,7.18
2022-09-07T14:33:59.486Z,4.40
2022-09-07T14:36:45.694Z,4.07
2022-09-07T14:39:19.143Z,3.10
2022-09-07T14:41:50.372Z,4.13
2022-09-07T14:44:34.989Z,3.03
2022-09-07T14:47:09.903Z,4.50
2022-09-07T14:49:40.784Z,3.90
2022-09-07T14:52:21.697Z,2.95
2022-09-07T14:54:56.109Z,5.30
2022-09-07T14:57:33.774Z,2.72
2022-09-07T15:00:43.909Z,2.70
2022-09-07T15:03:26.655Z,4.10
2022-09-07T15:08:42.336Z,2.65
2022-09-07T15:11:34.114Z,4.65
2022-09-07T15:14:12.056Z,3.33
2022-09-07T15:16:45.740Z,2.95
2022-09-07T15:19:19.847Z,3.03
2022-09-07T15:21:50.496Z,3.72
2022-09-07T15:24:20.904Z,2.35
2022-09-07T15:27:02.966Z,2.25
2022-09-07T15:29:33.822Z,2.70
2022-09-07T15:32:05.291Z,5.63
2022-09-07T15:34:38.448Z,2.90
2022-09-07T15:39:59.702Z,3.85
2022-09-07T15:45:20.940Z,2.83
2022-09-07T15:47:53.364Z,2.97
2022-09-07T15:50:24.036Z,2.55
2022-09-07T15:52:54.434Z,3.28
2022-09-07T15:55:26.564Z,2.50
2022-09-07T15:58:10.596Z,3.20
2022-09-07T16:00:42.183Z,2.67
2022-09-07T16:03:12.856Z,2.35
2022-09-07T16:05:45.498Z,2.42
2022-09-07T16:08:33.012Z,5.93
2022-09-07T16:11:28.774Z,4.93
2022-09-07T16:14:02.023Z,3.33
2022-09-07T16:19:26.623Z,3.17
2022-09-07T16:21:57.534Z,3.30
2022-09-07T16:24:29.676Z,2.53
2022-09-07T16:27:00.093Z,2.42
2022-09-07T16:29:30.722Z,2.97
2022-09-07T16:34:52.297Z,3.05
2022-09-07T16:37:22.672Z,5.90
2022-09-07T16:39:53.846Z,4.65
2022-09-07T16:42:25.377Z,3.70
2022-09-07T16:46:02.740Z,3.13
2022-09-07T16:47:46.286Z,3.70
2022-09-07T16:50:16.836Z,3.08
2022-09-07T16:52:47.431Z,3.95
2022-09-07T16:55:18.213Z,3.33
2022-09-07T17:00:39.679Z,4.72
2022-09-07T17:03:10.782Z,4.25
2022-09-07T17:05:42.544Z,5.03
2022-09-07T17:08:13.038Z,3.92
2022-09-07T17:10:43.714Z,5.47
2022-09-07T17:13:14.224Z,3.47
2022-09-07T17:15:44.918Z,2.92
2022-09-07T17:18:16.736Z,3.10
2022-09-07T17:20:59.879Z,3.20
2022-09-07T17:23:31.026Z,3.35
2022-09-07T17:26:12.762Z,8.13
2022-09-07T17:28:45.352Z,3.38
2022-09-07T17:34:14.504Z,3.05
2022-09-07T17:36:45.073Z,3.75
2022-09-07T17:39:17.500Z,4.85
2022-09-07T17:41:52.242Z,3.70
2022-09-07T17:44:24.550Z,4.40
2022-09-07T17:46:55.074Z,3.10
2022-09-07T17:49:26.394Z,3.38
2022-09-07T17:51:59.774Z,2.97
2022-09-07T17:54:30.691Z,3.92
2022-09-07T17:57:01.420Z,3.17
2022-09-07T18:02:22.765Z,3.63
2022-09-07T18:04:53.320Z,3.45
2022-09-07T18:07:23.867Z,3.38
2022-09-07T18:09:54.367Z,3.25
2022-09-07T18:12:25.041Z,7.00
2022-09-07T18:14:55.465Z,3.63
2022-09-07T18:17:26.020Z,7.32
2022-09-07T18:19:56.647Z,3.97
2022-09-07T18:22:27.327Z,5.65
2022-09-07T18:24:57.711Z,5.10
2022-09-07T18:27:28.346Z,3.28
2022-09-07T18:29:59.127Z,3.03
2022-09-07T18:32:29.452Z,3.05
2022-09-07T18:34:59.891Z,4.55
2022-09-07T18:37:31.499Z,5.63
2022-09-07T18:40:02.563Z,4.65
2022-09-07T18:42:33.482Z,11.55
2022-09-07T18:47:54.870Z,3.42
2022-09-07T18:50:25.632Z,3.65
2022-09-07T18:53:03.999Z,2.75
2022-09-07T18:55:37.958Z,3.83
2022-09-07T18:58:08.917Z,5.00
2022-09-07T19:00:45.069Z,5.35
2022-09-07T19:03:16.780Z,2.92
2022-09-07T19:05:52.481Z,3.33
2022-09-07T19:08:23.321Z,6.57
2022-09-07T19:10:54.204Z,3.22
2022-09-07T19:13:24.735Z,3.83
2022-09-07T19:15:55.268Z,3.38
2022-09-07T19:18:25.813Z,4.40
2022-09-07T19:20:56.218Z,5.25
2022-09-07T19:23:26.855Z,6.43
2022-09-07T19:26:00.362Z,3.75
2022-09-07T19:28:31.416Z,3.75
2022-09-07T19:31:09.263Z,3.80
2022-09-07T19:33:39.773Z,5.50
2022-09-07T19:36:10.663Z,7.10
2022-09-07T19:38:41.569Z,4.60
2022-09-07T19:41:14.287Z,5.60
2022-09-07T19:43:44.984Z,5.05
2022-09-07T19:46:18.547Z,4.07
2022-09-07T19:48:50.950Z,4.43
2022-09-07T19:51:21.535Z,3.60
2022-09-07T19:53:52.112Z,4.38
2022-09-07T19:56:25.777Z,4.82
2022-09-07T19:58:56.818Z,5.65
2022-09-07T20:01:27.850Z,8.82
2022-09-07T20:04:01.926Z,4.00
2022-09-07T20:06:34.682Z,3.85
2022-09-07T20:09:05.803Z,4.65
2022-09-07T20:11:37.937Z,9.98
2022-09-07T20:14:08.961Z,4.65
2022-09-07T20:16:41.984Z,5.55
2022-09-07T20:19:16.863Z,3.70
2022-09-07T20:21:47.783Z,6.18
2022-09-07T20:24:23.607Z,6.45
2022-09-07T20:26:54.188Z,4.22
2022-09-07T20:29:27.726Z,7.03
2022-09-07T20:32:02.565Z,7.45
2022-09-07T20:34:33.688Z,4.63
2022-09-07T20:37:04.127Z,5.05
2022-09-07T20:39:38.889Z,15.20
2022-09-07T20:42:09.903Z,5.72
2022-09-07T20:44:40.473Z,4.10
2022-09-07T20:47:11.033Z,5.78
2022-09-07T20:49:41.745Z,3.15
2022-09-07T20:52:12.250Z,4.45
2022-09-07T20:54:42.816Z,4.03
2022-09-07T20:57:13.309Z,4.50
2022-09-07T20:59:44.059Z,7.13
2022-09-07T21:02:14.536Z,5.32
2022-09-07T21:04:49.394Z,5.28
2022-09-07T21:07:20.587Z,4.25
2022-09-07T21:09:52.771Z,6.07
2022-09-07T21:12:23.855Z,6.78
2022-09-07T21:14:54.605Z,14.35
2022-09-07T21:17:25.220Z,6.32
2022-09-07T21:19:55.680Z,4.75
2022-09-07T21:22:26.232Z,3.42
2022-09-07T21:24:56.887Z,4.30
2022-09-07T21:27:27.314Z,8.52
2022-09-07T21:29:57.783Z,4.15
2022-09-07T21:32:28.270Z,4.43
2022-09-07T21:34:58.949Z,4.22
2022-09-07T21:37:29.451Z,4.90
2022-09-07T21:40:00.060Z,6.28
2022-09-07T21:42:30.657Z,4.13
2022-09-07T21:45:01.399Z,6.35
2022-09-07T21:47:31.840Z,6.20
2022-09-07T21:50:02.413Z,6.60
2022-09-07T21:52:33.369Z,7.00
2022-09-07T21:55:03.919Z,12.18
2022-09-07T21:57:34.441Z,4.50
2022-09-07T22:00:06.426Z,6.32
2022-09-07T22:02:38.226Z,5.70
2022-09-07T22:05:09.402Z,6.47
2022-09-07T22:07:39.879Z,6.15
2022-09-07T22:10:11.087Z,7.60
2022-09-07T22:12:41.780Z,17.95
2022-09-07T22:15:12.806Z,7.90
2022-09-07T22:17:46.172Z,6.30
2022-09-07T22:20:17.184Z,4.68
2022-09-07T22:22:47.791Z,4.70
2022-09-07T22:25:18.395Z,7.13
2022-09-07T22:27:49.068Z,6.20
2022-09-07T22:30:19.766Z,8.13
2022-09-07T22:32:51.267Z,14.13
2022-09-07T22:35:22.605Z,11.55
2022-09-07T22:37:53.151Z,12.50
2022-09-07T22:40:23.697Z,16.05
2022-09-07T22:42:54.184Z,11.93
2022-09-07T22:45:24.658Z,12.05
2022-09-07T22:50:24.613Z,7.72
2022-09-07T22:52:55.039Z,10.60
2022-09-07T22:55:25.547Z,12.15
2022-09-07T22:57:56.840Z,10.13
2022-09-07T23:00:27.385Z,9.90
2022-09-07T23:05:27.975Z,8.32
2022-09-07T23:07:58.456Z,15.02
2022-09-07T23:12:58.799Z,7.72
2022-09-07T23:15:29.394Z,13.20
2022-09-07T23:17:59.874Z,5.68
2022-09-07T23:20:30.422Z,8.10
2022-09-07T23:23:00.987Z,7.70
2022-09-07T23:25:31.663Z,9.45
2022-09-07T23:28:02.155Z,11.57
2022-09-07T23:30:32.930Z,5.18
2022-09-07T23:33:05.974Z,16.70
2022-09-07T23:35:36.652Z,5.00
2022-09-07T23:38:07.212Z,11.50
2022-09-07T23:40:37.852Z,11.35
2022-09-07T23:43:08.338Z,11.68
2022-09-07T23:45:38.981Z,8.77
2022-09-07T23:48:09.409Z,9.48
2022-09-07T23:50:40.004Z,9.65
2022-09-07T23:53:10.707Z,9.68
2022-09-07T23:55:41.678Z,7.75
2022-09-07T23:58:12.362Z,5.18
